Time;durP1;ratioP1;P1;durP2;ratioP2;P2;SDS_P1;SDS_P2;PMS_P1;PMS_P2;Temp;Humidity;BMP_temperature;BMP_pressure;BME280_temperature;BME280_humidity;BME280_pressure;Samples;Min_cycle;Max_cycle;Signal;HPM_P1;HPM_P2
2022/10/28 00:01:27;;;;;;;9.30;3.10;;;9.90;99.90;;;;;;5071138;28;20501;-48
2022/10/28 00:04:00;;;;;;;10.93;3.10;;;9.90;99.90;;;;;;5067834;28;20043;-48
2022/10/28 00:06:32;;;;;;;6.85;3.33;;;9.90;99.90;;;;;;5070941;28;20041;-51
2022/10/28 00:08:59;;;;;;;7.03;3.00;;;9.90;99.90;;;;;;5071537;28;20052;-47
2022/10/28 00:11:32;;;;;;;5.00;3.13;;;9.90;99.90;;;;;;5072295;28;20420;-47
2022/10/28 00:14:02;;;;;;;5.75;2.92;;;9.90;99.90;;;;;;5070997;28;20098;-47
2022/10/28 00:16:32;;;;;;;9.50;3.25;;;9.90;99.90;;;;;;5072116;28;20493;-47
2022/10/28 00:19:00;;;;;;;7.88;3.13;;;9.80;99.90;;;;;;5071905;28;20102;-48
2022/10/28 00:21:30;;;;;;;7.20;3.00;;;9.80;99.90;;;;;;5070534;28;20087;-48
2022/10/28 00:23:57;;;;;;;10.07;3.47;;;9.80;99.90;;;;;;5062730;28;20436;-49
2022/10/28 00:26:28;;;;;;;7.05;3.15;;;9.80;99.90;;;;;;5069848;28;20086;-50
2022/10/28 00:29:01;;;;;;;7.18;2.78;;;9.70;99.90;;;;;;5071626;28;20067;-48
2022/10/28 00:31:29;;;;;;;8.10;2.85;;;9.80;99.90;;;;;;5073201;23;20053;-51
2022/10/28 00:33:58;;;;;;;10.52;3.35;;;9.80;99.90;;;;;;5080272;28;20040;-53
2022/10/28 00:36:28;;;;;;;10.27;3.13;;;9.70;99.90;;;;;;5070095;28;20044;-52
2022/10/28 00:38:55;;;;;;;7.53;3.40;;;9.70;99.90;;;;;;5071474;28;20068;-49
2022/10/28 00:41:31;;;;;;;8.70;3.88;;;9.70;99.90;;;;;;5070622;28;20110;-49
2022/10/28 00:44:21;;;;;;;9.90;3.28;;;9.70;99.90;;;;;;5069243;28;20098;-50
2022/10/28 00:46:52;;;;;;;7.38;3.00;;;9.70;99.90;;;;;;5083672;28;20036;-49
2022/10/28 00:49:31;;;;;;;6.82;3.47;;;9.70;99.90;;;;;;5090566;28;20039;-50
2022/10/28 00:52:04;;;;;;;8.27;3.25;;;9.70;99.90;;;;;;5091407;28;20097;-50
2022/10/28 00:54:32;;;;;;;6.18;2.40;;;9.70;99.90;;;;;;5071923;28;20101;-50
2022/10/28 00:56:59;;;;;;;;;;;9.80;99.90;;;;;;5092134;28;20361;-49
2022/10/28 00:59:35;;;;;;;8.93;2.90;;;9.80;99.90;;;;;;5090747;28;19924;-51
2022/10/28 01:02:04;;;;;;;6.10;2.90;;;9.90;99.90;;;;;;5081509;28;20066;-49
2022/10/28 01:04:31;;;;;;;8.95;3.00;;;9.90;99.90;;;;;;5082516;28;20044;-51
2022/10/28 01:07:00;;;;;;;7.22;3.17;;;9.90;99.90;;;;;;5091784;28;20063;-49
2022/10/28 01:09:27;;;;;;;6.70;3.00;;;9.80;99.90;;;;;;5087990;28;20055;-49
2022/10/28 01:12:08;;;;;;;6.75;2.88;;;9.80;99.90;;;;;;5083139;28;20048;-51
2022/10/28 01:14:58;;;;;;;8.40;3.25;;;9.70;99.90;;;;;;5076324;28;20066;-52
2022/10/28 01:17:29;;;;;;;7.65;2.95;;;9.60;99.90;;;;;;5081930;28;20101;-49
2022/10/28 01:20:17;;;;;;;6.95;3.22;;;9.60;99.90;;;;;;5091095;28;20553;-50
2022/10/28 01:23:04;;;;;;;6.18;3.10;;;9.50;99.90;;;;;;5089086;28;20071;-51
2022/10/28 01:25:37;;;;;;;8.73;3.42;;;9.50;99.90;;;;;;5090743;28;20040;-51
2022/10/28 01:28:47;;;;;;;7.72;2.65;;;9.50;99.90;;;;;;5081928;28;20549;-53
2022/10/28 01:31:28;;;;;;;9.98;3.03;;;9.50;99.90;;;;;;5041169;28;20103;-50
2022/10/28 01:34:26;;;;;;;6.35;2.90;;;9.50;99.90;;;;;;5070842;28;20083;-53
2022/10/28 01:37:19;;;;;;;6.95;3.00;;;9.50;99.90;;;;;;5080677;28;20044;-49
2022/10/28 01:39:52;;;;;;;7.30;2.45;;;9.50;99.90;;;;;;5075974;28;20500;-51
2022/10/28 01:42:31;;;;;;;6.30;2.53;;;9.50;99.90;;;;;;5088016;28;20078;-51
2022/10/28 01:45:16;;;;;;;11.38;2.78;;;9.60;99.90;;;;;;5086052;28;20118;-51
2022/10/28 01:48:01;;;;;;;5.57;2.70;;;9.50;99.90;;;;;;5049851;28;20486;-52
2022/10/28 01:51:05;;;;;;;11.23;2.97;;;9.60;99.90;;;;;;5053527;28;20122;-51
2022/10/28 01:53:37;;;;;;;7.47;3.05;;;9.60;99.90;;;;;;5082457;28;20476;-56
2022/10/28 01:56:09;;;;;;;5.38;2.78;;;9.50;99.90;;;;;;5075722;28;20048;-53
2022/10/28 01:58:38;;;;;;;7.18;3.08;;;9.60;99.90;;;;;;5075722;28;20087;-55
2022/10/28 02:01:07;;;;;;;8.15;2.78;;;9.60;99.90;;;;;;5090058;28;20072;-52
2022/10/28 02:03:35;;;;;;;8.90;4.15;;;9.50;99.90;;;;;;5083444;28;20041;-53
2022/10/28 02:06:06;;;;;;;6.47;2.92;;;9.60;99.90;;;;;;5082750;28;20067;-51
2022/10/28 02:09:04;;;;;;;6.20;2.97;;;9.50;99.90;;;;;;5090100;28;20052;-51
2022/10/28 02:11:44;;;;;;;8.98;3.50;;;9.40;99.90;;;;;;5074362;28;20562;-52
2022/10/28 02:14:31;;;;;;;6.32;2.88;;;9.40;99.90;;;;;;5084759;28;20047;-51
2022/10/28 02:17:10;;;;;;;10.32;3.20;;;9.50;99.90;;;;;;5090164;28;20074;-51
2022/10/28 02:20:15;;;;;;;7.05;2.90;;;9.50;99.90;;;;;;5083499;28;20072;-50
2022/10/28 02:22:48;;;;;;;7.47;3.47;;;9.40;99.90;;;;;;5032253;28;20469;-50
2022/10/28 02:25:31;;;;;;;6.45;2.78;;;9.50;99.90;;;;;;5079203;28;20102;-50
2022/10/28 02:28:07;;;;;;;3.92;2.72;;;9.50;99.90;;;;;;5078616;28;20071;-51
2022/10/28 02:30:56;;;;;;;6.47;3.47;;;9.40;99.90;;;;;;5081301;28;20106;-51
2022/10/28 02:33:28;;;;;;;6.57;3.00;;;9.40;99.90;;;;;;5073727;28;20052;-54
2022/10/28 02:35:59;;;;;;;10.00;2.85;;;9.40;99.90;;;;;;5073329;28;20068;-51
2022/10/28 02:38:38;;;;;;;10.50;3.17;;;9.30;99.90;;;;;;5054948;28;20077;-51
2022/10/28 02:41:16;;;;;;;6.28;3.33;;;9.20;99.90;;;;;;5073704;28;20048;-51
2022/10/28 02:43:44;;;;;;;10.98;3.30;;;9.20;99.90;;;;;;5069881;28;20040;-51
2022/10/28 02:46:13;;;;;;;7.07;3.30;;;9.10;99.90;;;;;;5093953;28;20089;-52
2022/10/28 02:48:45;;;;;;;8.02;2.95;;;9.10;99.90;;;;;;5093346;28;20527;-52
2022/10/28 02:51:18;;;;;;;10.10;2.63;;;9.10;99.90;;;;;;5084391;28;20052;-54
2022/10/28 02:54:17;;;;;;;8.75;2.92;;;9.10;99.90;;;;;;5085012;28;20056;-51
2022/10/28 02:57:12;;;;;;;7.40;3.15;;;9.10;99.90;;;;;;5077036;28;20078;-50
2022/10/28 02:59:39;;;;;;;8.05;2.95;;;9.10;99.90;;;;;;5092727;28;20060;-51
2022/10/28 03:02:07;;;;;;;6.30;2.88;;;9.10;99.90;;;;;;5089467;28;20071;-55
2022/10/28 03:04:33;;;;;;;7.25;3.00;;;9.10;99.90;;;;;;5085090;28;20040;-51
2022/10/28 03:07:00;;;;;;;8.25;3.15;;;9.10;99.90;;;;;;5092158;28;20729;-51
2022/10/28 03:09:27;;;;;;;5.90;2.97;;;9.20;99.90;;;;;;5093449;28;20051;-52
2022/10/28 03:11:53;;;;;;;9.30;3.03;;;9.20;99.90;;;;;;5093564;28;20098;-52
2022/10/28 03:14:20;;;;;;;7.53;3.30;;;9.20;99.90;;;;;;5082705;28;20497;-51
2022/10/28 03:16:47;;;;;;;9.05;3.22;;;9.20;99.90;;;;;;5083152;28;20113;-52
2022/10/28 03:19:13;;;;;;;8.38;2.90;;;9.20;99.90;;;;;;5093146;28;20059;-52
2022/10/28 03:21:40;;;;;;;7.85;3.00;;;9.10;99.90;;;;;;5068501;28;20044;-52
2022/10/28 03:24:07;;;;;;;7.43;2.78;;;9.10;99.90;;;;;;5039535;28;20033;-53
2022/10/28 03:26:33;;;;;;;3.97;2.53;;;9.10;99.90;;;;;;5077208;28;20068;-55
2022/10/28 03:29:00;;;;;;;8.05;2.88;;;9.10;99.90;;;;;;5093233;28;20078;-51
2022/10/28 03:31:27;;;;;;;6.45;2.50;;;9.10;99.90;;;;;;5073923;28;20083;-55
2022/10/28 03:33:54;;;;;;;6.70;2.70;;;9.10;99.90;;;;;;5061878;28;20033;-50
2022/10/28 03:36:20;;;;;;;6.13;2.83;;;9.10;99.90;;;;;;5058901;28;20480;-51
2022/10/28 03:38:47;;;;;;;11.30;3.78;;;9.10;99.90;;;;;;5081442;28;20094;-51
2022/10/28 03:41:14;;;;;;;11.90;5.57;;;9.10;99.90;;;;;;5071854;28;20445;-52
2022/10/28 03:43:40;;;;;;;13.20;5.82;;;9.10;99.90;;;;;;5092180;28;20072;-50
2022/10/28 03:46:07;;;;;;;10.20;4.30;;;9.10;99.90;;;;;;5060393;28;20122;-52
2022/10/28 03:48:34;;;;;;;12.15;4.40;;;9.10;99.90;;;;;;5059110;28;20505;-53
2022/10/28 03:51:01;;;;;;;5.95;3.00;;;9.10;99.90;;;;;;5064133;28;20438;-51
2022/10/28 03:53:27;;;;;;;6.72;2.22;;;9.10;99.90;;;;;;5070526;28;20097;-55
2022/10/28 03:56:01;;;;;;;4.03;2.40;;;9.10;99.90;;;;;;5086546;28;20120;-51
2022/10/28 03:58:28;;;;;;;4.85;2.85;;;9.10;99.90;;;;;;5066048;28;20071;-54
2022/10/28 04:00:55;;;;;;;;;;;9.20;99.90;;;;;;5086820;28;20552;-50
2022/10/28 04:03:23;;;;;;;7.38;2.85;;;9.20;99.90;;;;;;5071002;28;19927;-50
2022/10/28 04:05:50;;;;;;;6.28;2.80;;;9.20;99.90;;;;;;5065417;28;20076;-51
2022/10/28 04:08:18;;;;;;;10.60;2.88;;;9.30;99.90;;;;;;5080005;28;20098;-51
2022/10/28 04:10:45;;;;;;;11.05;2.90;;;9.30;99.90;;;;;;5054542;28;20083;-50
2022/10/28 04:13:14;;;;;;;6.80;3.22;;;9.20;99.90;;;;;;5089596;28;20068;-53
2022/10/28 04:15:41;;;;;;;5.90;2.90;;;9.20;99.90;;;;;;5082998;28;20078;-50
2022/10/28 04:18:08;;;;;;;6.13;3.40;;;9.20;99.90;;;;;;5069114;28;20048;-50
2022/10/28 04:20:35;;;;;;;8.75;3.55;;;9.20;99.90;;;;;;5084439;28;20538;-52
2022/10/28 04:23:02;;;;;;;10.80;3.13;;;9.10;99.90;;;;;;5082263;28;20033;-52
2022/10/28 04:25:29;;;;;;;;;;;9.10;99.90;;;;;;5086869;28;20044;-51
2022/10/28 04:27:56;;;;;;;8.65;3.13;;;9.10;99.90;;;;;;5052408;28;19921;-51
2022/10/28 04:30:23;;;;;;;8.68;3.00;;;9.00;99.90;;;;;;5090713;28;20536;-51
2022/10/28 04:32:50;;;;;;;8.82;3.33;;;9.10;99.90;;;;;;5091036;28;20481;-50
2022/10/28 04:35:17;;;;;;;9.07;3.10;;;9.00;99.90;;;;;;5072243;28;20082;-52
2022/10/28 04:37:44;;;;;;;5.57;3.10;;;9.00;99.90;;;;;;5051498;28;20045;-51
2022/10/28 04:40:11;;;;;;;8.73;4.68;;;9.00;99.90;;;;;;5062405;28;20405;-51
2022/10/28 04:42:37;;;;;;;9.38;3.92;;;9.00;99.90;;;;;;5060969;28;20106;-55
2022/10/28 04:45:05;;;;;;;8.27;3.47;;;9.00;99.90;;;;;;5061365;28;20103;-50
2022/10/28 04:47:32;;;;;;;6.95;3.65;;;9.00;99.90;;;;;;5062248;28;20450;-52
2022/10/28 04:49:58;;;;;;;5.90;2.97;;;8.90;99.90;;;;;;5079345;28;20032;-51
2022/10/28 04:52:25;;;;;;;15.65;4.28;;;8.90;99.90;;;;;;5090914;28;20075;-51
2022/10/28 04:54:52;;;;;;;12.93;3.75;;;8.90;99.90;;;;;;5090956;28;20730;-54
2022/10/28 04:57:18;;;;;;;19.65;4.30;;;8.80;99.90;;;;;;5074464;28;20090;-54
2022/10/28 04:59:45;;;;;;;8.77;3.67;;;8.80;99.90;;;;;;5091055;28;20072;-53
2022/10/28 05:02:12;;;;;;;13.20;3.63;;;8.80;99.90;;;;;;5073514;28;20040;-53
2022/10/28 05:04:39;;;;;;;12.15;4.03;;;8.80;99.90;;;;;;5090204;28;20097;-53
2022/10/28 05:07:06;;;;;;;10.07;3.33;;;8.70;99.90;;;;;;5055805;28;20052;-51
2022/10/28 05:09:32;;;;;;;10.70;4.32;;;8.80;99.90;;;;;;5057876;28;20055;-51
2022/10/28 05:11:59;;;;;;;5.38;3.63;;;8.80;99.90;;;;;;5082691;28;20489;-50
2022/10/28 05:14:26;;;;;;;5.85;3.10;;;8.80;99.90;;;;;;5073652;28;20078;-52
2022/10/28 05:16:53;;;;;;;11.90;4.05;;;8.80;99.90;;;;;;5091262;28;20044;-51
2022/10/28 05:19:19;;;;;;;9.40;3.55;;;8.70;99.90;;;;;;5091586;28;20047;-51
2022/10/28 05:21:46;;;;;;;10.07;4.50;;;8.70;99.90;;;;;;5079890;28;20071;-50
2022/10/28 05:24:13;;;;;;;7.45;3.67;;;8.70;99.90;;;;;;5076584;28;20442;-50
2022/10/28 05:26:39;;;;;;;6.80;3.95;;;8.60;99.90;;;;;;5083308;28;20044;-54
2022/10/28 05:29:06;;;;;;;7.53;3.42;;;8.60;99.90;;;;;;5089275;28;20055;-52
2022/10/28 05:31:33;;;;;;;8.70;3.40;;;8.60;99.90;;;;;;5077423;28;20087;-51
2022/10/28 05:34:00;;;;;;;7.25;3.13;;;8.60;99.90;;;;;;5090336;28;20044;-51
2022/10/28 05:36:26;;;;;;;9.30;3.05;;;8.60;99.90;;;;;;5073952;28;20056;-51
2022/10/28 05:38:53;;;;;;;8.68;4.55;;;8.60;99.90;;;;;;5069012;28;20068;-50
2022/10/28 05:41:20;;;;;;;13.07;6.78;;;8.70;99.90;;;;;;5083446;28;20097;-51
2022/10/28 05:43:50;;;;;;;13.27;6.90;;;8.70;99.90;;;;;;5090781;28;20369;-50
2022/10/28 05:46:17;;;;;;;20.98;9.05;;;8.80;99.90;;;;;;5091311;28;20510;-51
2022/10/28 05:48:43;;;;;;;9.05;3.42;;;8.80;99.90;;;;;;5091005;28;20097;-51
2022/10/28 05:51:10;;;;;;;12.68;3.38;;;8.80;99.90;;;;;;5074487;28;20097;-51
2022/10/28 05:53:37;;;;;;;11.68;4.85;;;8.80;99.90;;;;;;5083015;28;20067;-52
2022/10/28 05:56:04;;;;;;;12.52;3.78;;;8.80;99.90;;;;;;5091179;28;20052;-50
2022/10/28 05:58:30;;;;;;;12.68;3.83;;;8.80;99.90;;;;;;5085435;28;20131;-51
2022/10/28 06:00:57;;;;;;;11.15;4.63;;;8.70;99.90;;;;;;5091006;28;20105;-50
2022/10/28 06:03:24;;;;;;;13.45;5.97;;;8.70;99.90;;;;;;5090554;28;20036;-51
2022/10/28 06:05:57;;;;;;;10.85;4.35;;;8.70;99.90;;;;;;5088366;28;20036;-50
2022/10/28 06:08:24;;;;;;;8.68;3.70;;;8.80;99.90;;;;;;5079236;28;20131;-51
2022/10/28 06:10:52;;;;;;;5.13;3.47;;;8.80;99.90;;;;;;5089018;28;20036;-50
2022/10/28 06:13:20;;;;;;;8.07;3.45;;;8.80;99.90;;;;;;5091355;28;20048;-52
2022/10/28 06:15:50;;;;;;;;;;;8.80;99.90;;;;;;5094423;28;20048;-51
2022/10/28 06:18:17;;;;;;;8.00;3.05;;;8.90;99.90;;;;;;5093548;28;19955;-51
2022/10/28 06:20:57;;;;;;;6.95;3.00;;;8.90;99.90;;;;;;5093443;28;20127;-50
2022/10/28 06:23:25;;;;;;;9.38;2.88;;;8.90;99.90;;;;;;5078534;28;20040;-50
2022/10/28 06:25:59;;;;;;;9.00;3.47;;;8.90;99.90;;;;;;5093933;28;20192;-52
2022/10/28 06:28:27;;;;;;;15.07;3.13;;;8.90;99.90;;;;;;5081548;28;20044;-51
2022/10/28 06:30:53;;;;;;;;;;;8.90;99.90;;;;;;5082691;28;20382;-47
2022/10/28 06:33:20;;;;;;;8.88;3.13;;;9.00;99.90;;;;;;5071431;23;19959;-50
2022/10/28 06:35:47;;;;;;;10.63;3.08;;;9.10;99.90;;;;;;5070522;28;20110;-49
2022/10/28 06:38:13;;;;;;;9.73;3.05;;;9.10;99.90;;;;;;5043137;28;20080;-49
2022/10/28 06:40:40;;;;;;;8.25;3.58;;;9.10;99.90;;;;;;5054586;28;20070;-49
2022/10/28 06:43:08;;;;;;;8.13;3.58;;;9.10;99.90;;;;;;5077591;28;20080;-49
2022/10/28 06:45:35;;;;;;;8.10;3.78;;;9.20;99.90;;;;;;5072839;28;20095;-52
2022/10/28 06:48:04;;;;;;;11.55;3.53;;;9.10;99.90;;;;;;5070264;28;20102;-49
2022/10/28 06:50:32;;;;;;;10.20;3.33;;;9.20;99.90;;;;;;5073513;28;20068;-50
2022/10/28 06:52:59;;;;;;;7.18;3.70;;;9.20;99.90;;;;;;5073522;28;20132;-51
2022/10/28 06:55:27;;;;;;;10.85;3.80;;;9.20;99.90;;;;;;5072828;28;20068;-50
2022/10/28 06:57:57;;;;;;;10.23;3.17;;;9.30;99.90;;;;;;5069509;28;20060;-49
2022/10/28 07:00:25;;;;;;;10.98;3.28;;;9.40;99.90;;;;;;5073008;28;20568;-49
2022/10/28 07:02:53;;;;;;;6.88;3.25;;;9.40;99.90;;;;;;5073132;28;20448;-48
2022/10/28 07:05:22;;;;;;;9.38;3.60;;;9.50;99.90;;;;;;5065007;28;20110;-48
2022/10/28 07:07:49;;;;;;;7.60;2.85;;;9.50;99.90;;;;;;5083860;28;20152;-52
2022/10/28 07:10:15;;;;;;;7.80;3.75;;;9.60;99.90;;;;;;5072897;28;20045;-49
2022/10/28 07:12:42;;;;;;;6.88;3.03;;;9.70;99.90;;;;;;5072985;28;20041;-49
2022/10/28 07:15:09;;;;;;;6.60;3.03;;;9.70;99.90;;;;;;5068960;28;20501;-48
2022/10/28 07:17:36;;;;;;;8.73;3.10;;;9.70;99.90;;;;;;5072963;28;20083;-49
2022/10/28 07:20:03;;;;;;;7.75;3.00;;;9.80;99.90;;;;;;5073026;28;20509;-50
2022/10/28 07:22:30;;;;;;;11.38;4.55;;;9.80;99.90;;;;;;5069347;28;20045;-49
2022/10/28 07:24:57;;;;;;;8.48;2.70;;;9.90;99.90;;;;;;5067655;28;20124;-51
2022/10/28 07:27:23;;;;;;;7.63;2.83;;;10.10;99.90;;;;;;5072335;28;20339;-50
2022/10/28 07:29:50;;;;;;;6.88;3.90;;;10.20;99.90;;;;;;5072759;28;20068;-49
2022/10/28 07:32:17;;;;;;;15.07;3.55;;;10.40;99.90;;;;;;5070901;28;20041;-53
2022/10/28 07:34:43;;;;;;;8.93;2.88;;;10.50;99.90;;;;;;5072211;28;20072;-49
2022/10/28 07:37:11;;;;;;;11.55;3.00;;;10.50;99.90;;;;;;5072308;28;20135;-49
2022/10/28 07:39:38;;;;;;;4.45;3.05;;;10.50;99.90;;;;;;5070019;28;20045;-49
2022/10/28 07:42:05;;;;;;;7.78;3.28;;;10.60;99.90;;;;;;5068653;28;20045;-49
2022/10/28 07:44:31;;;;;;;6.15;2.78;;;10.80;99.90;;;;;;5069035;28;20068;-49
2022/10/28 07:46:58;;;;;;;6.20;2.28;;;10.90;99.90;;;;;;5072224;28;20068;-49
2022/10/28 07:49:25;;;;;;;10.02;2.35;;;11.00;99.90;;;;;;5065602;28;20041;-50
2022/10/28 07:51:52;;;;;;;9.98;2.67;;;11.10;99.90;;;;;;5062551;28;20061;-49
2022/10/28 07:54:18;;;;;;;3.95;2.40;;;11.30;99.90;;;;;;5067312;28;20123;-49
2022/10/28 07:56:45;;;;;;;6.95;3.10;;;11.40;99.90;;;;;;5070805;28;20111;-49
2022/10/28 07:59:12;;;;;;;6.07;2.30;;;11.40;99.90;;;;;;5065669;28;20064;-52
2022/10/28 08:01:39;;;;;;;8.30;2.70;;;11.40;99.90;;;;;;5059360;28;20067;-49
2022/10/28 08:04:05;;;;;;;5.95;2.65;;;11.50;99.90;;;;;;5071728;28;20044;-51
2022/10/28 08:06:34;;;;;;;6.75;2.60;;;11.60;99.90;;;;;;5071706;28;20040;-51
2022/10/28 08:09:01;;;;;;;5.70;2.20;;;11.70;99.90;;;;;;5068040;28;20071;-50
2022/10/28 08:11:28;;;;;;;;;;;11.90;99.90;;;;;;5071612;28;20103;-49
2022/10/28 08:13:55;;;;;;;4.85;2.22;;;12.00;99.90;;;;;;5070301;28;20292;-50
2022/10/28 08:16:22;;;;;;;8.35;3.40;;;12.20;99.90;;;;;;5070797;28;20048;-49
2022/10/28 08:18:49;;;;;;;5.70;2.00;;;12.30;99.90;;;;;;5069444;28;20582;-50
2022/10/28 08:21:16;;;;;;;6.38;2.60;;;12.40;99.90;;;;;;5053738;28;20503;-53
2022/10/28 08:23:45;;;;;;;10.65;2.75;;;12.40;99.90;;;;;;5070857;28;20044;-50
2022/10/28 08:26:14;;;;;;;8.85;2.67;;;12.50;99.90;;;;;;5064346;28;20033;-50
2022/10/28 08:28:41;;;;;;;11.23;2.15;;;12.60;99.90;;;;;;5071863;28;20044;-54
2022/10/28 08:31:08;;;;;;;7.60;2.60;;;12.90;99.90;;;;;;5071920;28;20386;-49
2022/10/28 08:33:38;;;;;;;4.53;2.63;;;12.90;99.90;;;;;;5070120;28;20519;-51
2022/10/28 08:36:06;;;;;;;6.43;2.35;;;13.00;99.90;;;;;;5068114;28;20485;-49
2022/10/28 08:38:33;;;;;;;7.55;2.70;;;13.10;99.90;;;;;;5051391;28;20083;-49
2022/10/28 08:41:16;;;;;;;5.28;1.83;;;13.30;99.90;;;;;;5058631;28;20083;-48
2022/10/28 08:44:04;;;;;;;5.68;2.13;;;13.40;99.90;;;;;;5071093;28;20064;-51
2022/10/28 08:46:46;;;;;;;7.47;1.90;;;13.40;99.90;;;;;;5058360;28;20033;-49
2022/10/28 08:49:17;;;;;;;3.85;1.80;;;13.60;99.90;;;;;;5071037;28;20041;-51
2022/10/28 08:51:57;;;;;;;3.97;1.80;;;13.80;99.90;;;;;;5070566;28;20131;-49
2022/10/28 08:54:38;;;;;;;6.07;1.98;;;13.80;99.90;;;;;;5066484;28;20044;-49
2022/10/28 08:57:15;;;;;;;3.58;2.38;;;14.00;99.90;;;;;;5067077;28;20558;-50
2022/10/28 08:59:45;;;;;;;10.27;2.50;;;14.10;99.90;;;;;;5071371;28;20048;-50
2022/10/28 09:02:22;;;;;;;6.85;2.35;;;13.90;99.90;;;;;;5070970;28;20465;-50
2022/10/28 09:05:13;;;;;;;5.55;2.03;;;14.10;99.90;;;;;;5064544;28;20508;-50
2022/10/28 09:07:40;;;;;;;10.32;2.15;;;14.00;99.90;;;;;;5064365;28;20068;-50
2022/10/28 09:10:07;;;;;;;6.10;2.40;;;14.10;99.90;;;;;;5071011;28;20068;-51
2022/10/28 09:12:50;;;;;;;5.28;2.17;;;14.20;99.90;;;;;;5066227;28;20044;-49
2022/10/28 09:15:38;;;;;;;7.47;1.90;;;14.30;99.90;;;;;;5070469;28;20047;-50
2022/10/28 09:18:23;;;;;;;2.80;1.65;;;14.30;99.90;;;;;;5070347;28;20036;-52
2022/10/28 09:20:53;;;;;;;4.28;1.80;;;14.50;99.90;;;;;;5063857;28;20052;-53
2022/10/28 09:23:21;;;;;;;4.95;2.42;;;14.60;99.90;;;;;;5070991;28;20114;-51
2022/10/28 09:26:05;;;;;;;8.32;2.47;;;14.80;99.90;;;;;;5064528;28;20067;-51
2022/10/28 09:28:38;;;;;;;4.68;2.03;;;14.90;99.90;;;;;;5070701;28;20098;-51
2022/10/28 09:31:19;;;;;;;7.03;1.92;;;15.00;99.90;;;;;;5070141;28;20104;-49
2022/10/28 09:34:16;;;;;;;5.75;1.88;;;15.10;99.90;;;;;;5062501;28;20078;-50
2022/10/28 09:36:50;;;;;;;4.50;1.80;;;15.10;99.90;;;;;;5052375;28;20076;-50
2022/10/28 09:39:21;;;;;;;5.68;2.10;;;15.30;99.90;;;;;;5074733;28;20079;-51
2022/10/28 09:41:56;;;;;;;5.53;1.70;;;15.50;99.90;;;;;;5069411;28;20119;-52
2022/10/28 09:44:40;;;;;;;4.90;1.75;;;15.60;99.90;;;;;;5074197;28;20090;-49
2022/10/28 09:47:45;;;;;;;5.75;2.85;;;15.60;99.90;;;;;;5074757;28;20036;-49
2022/10/28 09:50:16;;;;;;;4.45;1.30;;;15.70;99.90;;;;;;5051140;28;20080;-49
2022/10/28 09:53:13;;;;;;;6.47;1.70;;;15.80;99.90;;;;;;5074920;28;20064;-51
2022/10/28 09:55:40;;;;;;;2.70;1.40;;;15.80;99.90;;;;;;5069466;28;20095;-51
2022/10/28 09:58:11;;;;;;;6.18;1.55;;;15.90;99.90;;;;;;5067374;28;20468;-50
2022/10/28 10:00:38;;;;;;;4.35;1.70;;;16.00;99.90;;;;;;5074523;28;20393;-49
2022/10/28 10:03:04;;;;;;;;;;;16.10;99.90;;;;;;5075046;28;20080;-50
2022/10/28 10:05:36;;;;;;;3.38;1.33;;;16.20;99.90;;;;;;5073716;28;19983;-50
2022/10/28 10:08:04;;;;;;;7.22;1.40;;;16.30;99.90;;;;;;5062456;28;20436;-52
2022/10/28 10:10:44;;;;;;;5.80;1.70;;;16.50;99.90;;;;;;5065585;28;20110;-52
2022/10/28 10:13:13;;;;;;;5.72;1.58;;;16.60;99.90;;;;;;5074181;28;20539;-50
2022/10/28 10:15:45;;;;;;;5.68;1.92;;;16.60;99.90;;;;;;5069567;28;20033;-49
2022/10/28 10:18:17;;;;;;;6.90;1.52;;;16.60;99.90;;;;;;5074027;28;20045;-49
2022/10/28 10:20:48;;;;;;;3.78;1.40;;;16.70;99.90;;;;;;5073405;28;20072;-49
2022/10/28 10:23:32;;;;;;;6.93;1.58;;;16.70;99.90;;;;;;5072322;28;20504;-52
2022/10/28 10:26:03;;;;;;;5.38;1.50;;;16.90;99.90;;;;;;5069777;28;20064;-51
2022/10/28 10:28:42;;;;;;;4.65;1.35;;;16.90;99.90;;;;;;5074074;28;20052;-50
2022/10/28 10:31:20;;;;;;;2.85;1.40;;;16.90;99.90;;;;;;5073849;28;20095;-50
2022/10/28 10:33:49;;;;;;;5.60;1.48;;;17.00;99.90;;;;;;5067478;28;20037;-49
2022/10/28 10:36:20;;;;;;;1.83;1.30;;;17.10;99.90;;;;;;5073796;28;20078;-52
2022/10/28 10:38:50;;;;;;;2.80;1.42;;;17.00;99.90;;;;;;5072774;28;20075;-49
2022/10/28 10:41:41;;;;;;;3.03;1.42;;;17.10;99.90;;;;;;5065666;28;20041;-50
2022/10/28 10:44:20;;;;;;;9.00;1.30;;;17.20;99.90;;;;;;5073000;28;20072;-51
2022/10/28 10:47:00;;;;;;;4.25;1.45;;;17.20;99.90;;;;;;5060172;28;20033;-52
2022/10/28 10:49:35;;;;;;;4.65;1.40;;;17.40;99.90;;;;;;5072454;28;20396;-51
2022/10/28 10:52:16;;;;;;;6.32;1.70;;;17.50;99.90;;;;;;5073319;28;20068;-53
2022/10/28 10:54:56;;;;;;;7.20;1.20;;;17.60;99.90;;;;;;5066099;28;20072;-53
2022/10/28 10:57:25;;;;;;;3.08;1.40;;;17.70;99.90;;;;;;5073271;28;20090;-51
2022/10/28 10:59:54;;;;;;;8.75;1.52;;;17.70;99.90;;;;;;5073012;28;20040;-49
2022/10/28 11:02:29;;;;;;;4.47;1.23;;;17.70;99.90;;;;;;5073070;28;20102;-50
2022/10/28 11:05:03;;;;;;;3.28;1.30;;;17.80;99.90;;;;;;5066691;28;20040;-50
2022/10/28 11:07:31;;;;;;;1.67;1.10;;;18.00;99.90;;;;;;5073125;28;20112;-49
2022/10/28 11:09:59;;;;;;;5.22;1.15;;;17.90;99.90;;;;;;5072895;28;20041;-50
2022/10/28 11:12:34;;;;;;;3.90;1.70;;;17.90;99.90;;;;;;5065108;28;20083;-50
2022/10/28 11:15:18;;;;;;;3.50;1.30;;;17.90;99.90;;;;;;5072713;28;20033;-51
2022/10/28 11:18:00;;;;;;;3.85;1.42;;;17.90;99.90;;;;;;5067333;28;20045;-50
2022/10/28 11:20:47;;;;;;;7.55;2.83;;;18.10;99.90;;;;;;5073016;28;20040;-50
2022/10/28 11:23:30;;;;;;;3.83;1.23;;;18.30;99.90;;;;;;5072464;28;20045;-49
2022/10/28 11:26:06;;;;;;;4.13;1.38;;;18.40;99.90;;;;;;5065015;28;20127;-50
2022/10/28 11:29:00;;;;;;;3.33;1.40;;;18.50;99.90;;;;;;5064965;28;20033;-50
2022/10/28 11:31:44;;;;;;;2.92;1.20;;;18.60;99.90;;;;;;5072817;28;20053;-50
2022/10/28 11:35:02;;;;;;;2.10;1.23;;;18.70;99.90;;;;;;5064075;28;20052;-49
2022/10/28 11:37:46;;;;;;;4.18;1.33;;;18.80;99.90;;;;;;5030180;28;20050;-52
2022/10/28 11:40:32;;;;;;;2.60;1.38;;;18.80;99.90;;;;;;5008928;28;20107;-51
2022/10/28 11:43:10;;;;;;;2.72;1.33;;;18.90;99.90;;;;;;5060156;28;20459;-51
2022/10/28 11:46:09;;;;;;;4.60;1.55;;;19.00;99.90;;;;;;5071282;28;20388;-49
2022/10/28 11:49:12;;;;;;;3.70;1.08;;;19.00;99.90;;;;;;5066108;28;20064;-49
2022/10/28 11:51:50;;;;;;;4.25;2.05;;;19.10;99.90;;;;;;5068263;28;20049;-51
2022/10/28 11:54:32;;;;;;;;;;;19.10;99.90;;;;;;5070352;28;20068;-51
2022/10/28 11:57:08;;;;;;;2.60;0.95;;;19.30;99.90;;;;;;5066394;28;19951;-49
2022/10/28 11:59:56;;;;;;;6.00;1.33;;;19.40;99.90;;;;;;5054513;28;20053;-51
2022/10/28 12:02:41;;;;;;;4.75;1.25;;;19.50;99.90;;;;;;5071859;28;20032;-50
2022/10/28 12:05:21;;;;;;;4.15;1.30;;;19.60;99.90;;;;;;5065535;28;20051;-50
2022/10/28 12:08:15;;;;;;;4.85;1.30;;;19.80;99.90;;;;;;5072161;28;20072;-49
2022/10/28 12:10:48;;;;;;;4.03;1.13;;;19.80;99.90;;;;;;5071875;28;20033;-51
2022/10/28 12:13:42;;;;;;;5.88;1.55;;;19.90;99.90;;;;;;5065874;28;20524;-49
2022/10/28 12:16:26;;;;;;;3.88;1.33;;;20.00;99.90;;;;;;5066061;28;20090;-49
2022/10/28 12:19:27;;;;;;;3.13;1.10;;;20.20;99.90;;;;;;5072123;28;20118;-50
2022/10/28 12:22:16;;;;;;;3.78;1.00;;;20.20;99.90;;;;;;5068513;28;20080;-48
2022/10/28 12:24:44;;;;;;;2.10;1.20;;;20.20;99.90;;;;;;5068024;28;20111;-48
2022/10/28 12:27:18;;;;;;;4.03;1.85;;;20.20;99.90;;;;;;5071776;28;20056;-47
2022/10/28 12:29:50;;;;;;;3.90;1.38;;;20.20;99.90;;;;;;5065459;28;20091;-50
2022/10/28 12:32:25;;;;;;;4.55;1.20;;;20.10;99.90;;;;;;5087046;22;20075;-46
2022/10/28 12:35:20;;;;;;;3.15;0.98;;;20.00;99.90;;;;;;5089426;28;20040;-47
2022/10/28 12:37:55;;;;;;;6.82;1.40;;;19.80;99.90;;;;;;5091034;28;20412;-48
2022/10/28 12:40:32;;;;;;;5.13;1.27;;;19.70;99.90;;;;;;5088902;28;20477;-48
2022/10/28 12:43:28;;;;;;;4.82;1.55;;;19.80;99.90;;;;;;5090104;28;20447;-46
2022/10/28 12:45:55;;;;;;;2.47;1.15;;;19.90;99.90;;;;;;5090892;28;20113;-46
2022/10/28 12:48:39;;;;;;;4.53;1.27;;;20.00;99.90;;;;;;5091345;28;20076;-48
2022/10/28 12:51:16;;;;;;;1.65;1.27;;;20.00;99.90;;;;;;5090659;28;20105;-46
2022/10/28 12:54:00;;;;;;;4.20;1.38;;;20.00;99.90;;;;;;5086342;28;20516;-46
2022/10/28 12:56:35;;;;;;;4.65;1.23;;;20.10;99.90;;;;;;5091008;28;20106;-48
2022/10/28 12:59:14;;;;;;;8.18;1.35;;;20.20;99.90;;;;;;5070969;28;20043;-48
2022/10/28 13:01:44;;;;;;;3.72;1.00;;;20.20;99.90;;;;;;5086657;28;20452;-47
2022/10/28 13:04:12;;;;;;;9.52;2.75;;;20.30;99.90;;;;;;5090525;28;20059;-46
2022/10/28 13:07:01;;;;;;;4.25;1.58;;;20.40;99.90;;;;;;5087652;28;20496;-47
2022/10/28 13:09:40;;;;;;;5.32;1.55;;;20.60;99.90;;;;;;5082260;28;20040;-46
2022/10/28 13:12:21;;;;;;;5.28;1.17;;;20.80;99.90;;;;;;5090359;28;20040;-48
2022/10/28 13:15:21;;;;;;;3.83;1.20;;;20.80;99.90;;;;;;5090818;28;20384;-46
2022/10/28 13:18:22;;;;;;;2.70;1.08;;;20.80;99.90;;;;;;5083695;28;20110;-47
2022/10/28 13:21:14;;;;;;;6.25;1.13;;;21.00;99.90;;;;;;5085483;28;20040;-46
2022/10/28 13:24:14;;;;;;;2.50;1.20;;;21.10;99.90;;;;;;5083406;28;20067;-48
2022/10/28 13:26:43;;;;;;;4.38;1.00;;;21.00;99.90;;;;;;5088724;28;20469;-47